Impacts TAF Board
For situational awareness. Not to be used for flight planning purposes.
IDs:

KHDN - Hayden/Yampa Valley, CO, US

Issued at 0531 UTC 27 Feb 2020
Updated at 0820 UTC 27 Feb 2020
Potential Impact None Slight Moderate High
Time0756Z 27/09Z 27/10Z 27/11Z 27/12Z 27/13Z 27/14Z 27/15Z 27/16Z 27/17Z 27/18Z 27/19Z 27/20Z 27/21Z>>
Type OBS PRVL PRVL PRVL PRVL PRVL PRVL PRVL PRVL PRVL PRVL PRVL PRVL PRVL
VIS 10 >6 >6 >6 >6 >6 >6 >6 >6 >6 >6 >6 >6 >6
CIG 55 50 50 50 50 50 50 50 50 50 -- -- -- --
Cover OVC BKN BKN BKN BKN BKN BKN BKN BKN BKN SCT SCT FEW FEW
FltCat VFR VFR VFR VFR VFR VFR VFR VFR VFR VFR VFR VFR VFR VFR
WX -- -- -- -- -- -- -- -- -- -- -- -- -- --
WDir 170 VRB VRB VRB VRB VRB VRB VRB VRB VRB 80 80 VRB VRB
WSpd 5 4 4 4 4 4 4 4 4 4 4 4 3 3
WGst -- -- -- -- -- -- -- -- -- -- -- -- -- --
Raw TAF
KHDN 270531Z 2706/2806 09005KT P6SM OVC050
  FM270900 VRB04KT P6SM SCT040 BKN050
  FM271800 08004KT P6SM FEW035 SCT050
  FM272000 VRB03KT P6SM FEW035 FEW200
  FM280000 28005KT P6SM FEW040 OVC100
  FM280200 VRB04KT P6SM FEW060 BKN250


Raw METAR
KHDN 270756Z AUTO 17005KT 10SM OVC055 M08/M13 A3029 RMK AO2 SLP298 T10781128 FZRANO
KHDN 270656Z AUTO 08006KT 10SM OVC050 M07/M13 A3029 RMK AO2 SLP307 T10671128 FZRANO
KHDN 270556Z AUTO 07005KT 10SM BKN055 OVC075 M08/M13 A3030 RMK AO2 SLP326 T10781133 11033 21094 400111194 58006 FZRANO

METAR Board
Radar Display
Forecast Discussion
For situational awareness. Not to be used for flight planning purposes.